Route Details

Aircraft Information
Group: Boeing Long Haul
Types: B744, B763
Route Data
Distance: 2051nm
Duration: 4h 25m
Recm'd Route: MDO B453 KANUA B453 BOXER FOT ENI J143 PYE J88 ROBIE J6 AVE T259 EHF ZIGGY7
Origin Wx: PANC 042053Z 31005KT 10SM FEW030 SCT070 BKN110 OVC200 17/11 A2995 RMK AO2 SLP143 T01720111 51001 $
Dest. Wx: KONT 042053Z 27008KT 230V320 10SM CLR 27/12 A2992 RMK AO2 SLP120 T02720122 57010
Notes:
Freight Data
(for Jul 4, 2022)
Load Factor:
36%
Manifested Cargo: 87,337lbs
Financial History
Total Freight: 0lbs
Average Load: 0lbs/flt
Fuel Used: 0lbs
Avg. Fuel Used: 0lbs/flt
Fuel Expense: $0
Avg. Fuel Expense: $0
Avg. Fuel Cost: $0/lbs
Total Gross Income: $0
Pilot Pay: $0
Total Expenses: $0
Total Revenue: $0
Average Revenue: $0

Capitol Logistics 77




PANC
Ted Stevens Anchorage International Airport
Anchorage, Alaska
KONT
Ontario International Airport
Ontario, California

Activity Log

Date Flight Route Aircraft Duration
No Flights Yet